KGBD

Great Bend Municipal Airport

Great Bend, Kansas, USA
KGBD 251423Z 2514/2612 32010KT P6SM SHRA SCT010 BKN025 FM251530 35020G30KT P6SM BKN025 FM252100 36020G28KT P6SM SCT250 FM260300 01007KT P6SM SKC AMD LTD TO VIS AND WIND
Issued Valid From Valid To
Sep-25 @ 14:23 UTC
(3 hours ago)
Sep-25 @ 14:00 UTC
(3 hours ago)
Sep-26 @ 12:00 UTC
(in 19 hours)
Expired Click to View Sep-25 @ 14:00 to Sep-25 @ 15:30
KGBD 251423Z 2514/2612 32010KT P6SM SHRA SCT010 BKN025
Wind Visibility Clouds Conditions
320° at 10 knots Greater than 6 miles
  • Scattered at 1,000' AGL
  • Broken at 2,500' AGL
  • Rain
From Sep-25 @ 15:30 to Sep-25 @ 21:00
FM251530 35020G30KT P6SM BKN025
Wind Visibility Clouds
350° at 20 knots
 Gusting to 30 knots
Greater than 6 miles
  • Broken at 2,500' AGL
From Sep-25 @ 21:00 to Sep-26 @ 03:00
FM252100 36020G28KT P6SM SCT250
Wind Visibility Clouds
360° at 20 knots
 Gusting to 28 knots
Greater than 6 miles
  • Scattered at 25,000' AGL
From Sep-26 @ 03:00 to Sep-26 @ 12:00
FM260300 01007KT P6SM SKC AMD LTD TO VIS AND WIND
Wind Visibility Clouds
10° at 7 knots Greater than 6 miles
  • Clear skies
KGBD 251423Z 2514/2612 32010KT P6SM SHRA SCT010 BKN025 FM251530 35020G30KT P6SM BKN025 FM252100 36020G28KT P6SM SCT250 FM260300 01007KT P6SM SKC AMD LTD TO VIS AND WIND
Issued Sep-25 @ 14:23 UTC
(3 hours ago)
Valid From Sep-25 @ 14:00 UTC
(3 hours ago)
Valid To Sep-26 @ 12:00 UTC
(in 19 hours)
Sep-25 @ 14:00 - Sep-25 @ 15:30
Wind Visibility
320° at 10 knots Greater than 6 miles
Clouds
  • Scattered at 1,000' AGL
  • Broken at 2,500' AGL
Conditions
  • Rain
From Sep-25 @ 15:30 - Sep-25 @ 21:00
Wind Visibility
350° at 20 knots
 Gusting to 30 knots
Greater than 6 miles
Clouds
  • Broken at 2,500' AGL
From Sep-25 @ 21:00 - Sep-26 @ 03:00
Wind Visibility
360° at 20 knots
 Gusting to 28 knots
Greater than 6 miles
Clouds
  • Scattered at 25,000' AGL
From Sep-26 @ 03:00 - Sep-26 @ 12:00
Wind Visibility
10° at 7 knots Greater than 6 miles
Clouds
  • Clear skies